Time;durP1;ratioP1;P1;durP2;ratioP2;P2;SDS_P1;SDS_P2;PMS_P1;PMS_P2;Temp;Humidity;BMP_temperature;BMP_pressure;BME280_temperature;BME280_humidity;BME280_pressure;Samples;Min_cycle;Max_cycle;Signal;HPM_P1;HPM_P2
2022/02/09 00:02:51;;;;;;;;;5.00;4.25;;;;;6.83;43.49;101828.06;146600;611;47012;-73
2022/02/09 00:05:54;;;;;;;;;5.25;4.00;;;;;6.82;44.23;101802.13;146601;593;46020;-82
2022/02/09 00:08:46;;;;;;;;;7.50;4.00;;;;;6.82;46.84;101818.53;146605;613;46016;-81
2022/02/09 00:11:49;;;;;;;;;6.50;5.00;;;;;6.79;44.57;101813.13;146600;569;46020;-82
2022/02/09 00:21:36;;;;;;;;;6.50;6.50;;;;;6.80;44.66;101826.91;146601;620;46016;-72
2022/02/09 00:24:49;;;;;;;;;8.75;6.75;;;;;6.84;45.98;101836.69;146598;566;46008;-71
2022/02/09 00:28:05;;;;;;;;;8.75;5.50;;;;;6.84;45.21;101826.37;146602;650;46916;-72
2022/02/09 01:33:03;;;;;;;;;7.00;5.50;;;;;6.75;44.56;101897.78;146601;648;46010;-69
2022/02/09 01:38:12;;;;;;;;;10.25;8.75;;;;;6.63;44.12;101907.94;146600;614;46017;-70
2022/02/09 01:50:57;;;;;;;;;7.25;7.00;;;;;6.55;42.69;101894.41;146600;583;46017;-69
2022/02/09 01:57:06;;;;;;;;;7.50;7.00;;;;;6.29;44.49;101897.28;146591;569;46016;-68
2022/02/09 01:59:58;;;;;;;;;6.75;6.75;;;;;6.15;43.58;101892.62;146594;571;46008;-68
2022/02/09 02:02:50;;;;;;;;;8.00;7.50;;;;;6.00;43.74;101884.44;146592;563;46916;-77
2022/02/09 02:05:42;;;;;;;;;8.00;7.25;;;;;5.91;45.62;101888.75;146595;658;46020;-73
2022/02/09 02:08:37;;;;;;;;;8.50;8.00;;;;;5.92;45.20;101887.97;146592;613;46010;-76
2022/02/09 02:11:39;;;;;;;;;5.25;5.25;;;;;5.91;44.27;101881.94;146591;590;46020;-78
2022/02/09 02:14:38;;;;;;;;;9.75;5.50;;;;;5.92;43.87;101899.19;146591;578;46010;-71
2022/02/09 02:17:39;;;;;;;;;5.75;5.50;;;;;5.91;46.20;101887.06;146597;571;46008;-70
2022/02/09 02:24:28;;;;;;;;;4.00;4.00;;;;;6.06;46.41;101884.09;146588;594;46020;-69
2022/02/09 02:27:47;;;;;;;;;7.75;6.25;;;;;6.15;46.38;101890.03;146591;672;46914;-72
2022/02/09 02:31:02;;;;;;;;;5.25;4.00;;;;;6.23;46.25;101876.12;146595;619;46025;-69
2022/02/09 02:57:08;;;;;;;;;6.25;5.00;;;;;6.51;45.35;101891.41;146593;576;46020;-72
2022/02/09 03:13:00;;;;;;;;;4.00;4.00;;;;;6.48;45.83;101892.97;146600;636;46017;-72
2022/02/09 03:15:59;;;;;;;;;7.00;6.00;;;;;6.50;44.58;101898.25;146604;634;46008;-73
2022/02/09 03:19:17;;;;;;;;;8.25;7.75;;;;;6.50;45.04;101900.81;146602;616;46016;-76
2022/02/09 03:25:49;;;;;;;;;4.75;4.75;;;;;6.48;43.93;101908.44;146602;564;46010;-77
2022/02/09 03:51:38;;;;;;;;;7.00;7.00;;;;;6.04;45.45;101921.66;146592;583;46016;-76
2022/02/09 03:54:41;;;;;;;;;9.50;7.25;;;;;5.91;45.64;101937.66;146598;599;45026;-77
2022/02/09 03:57:44;;;;;;;;;11.75;10.00;;;;;5.81;45.84;101930.78;146590;613;46016;-73
2022/02/09 04:00:40;;;;;;;;;8.50;7.25;;;;;5.72;45.11;101933.44;146590;575;46020;-72
2022/02/09 04:03:33;;;;;;;;;7.50;7.50;;;;;5.67;45.23;101944.06;146593;687;46010;-74
2022/02/09 04:06:27;;;;;;;;;7.75;7.75;;;;;5.65;46.07;101940.47;146595;670;46009;-72
2022/02/09 04:09:24;;;;;;;;;9.75;6.75;;;;;5.63;45.99;101944.56;146591;653;46019;-73
2022/02/09 04:12:41;;;;;;;;;8.00;7.50;;;;;5.56;45.25;101954.31;146594;624;46026;-73
2022/02/09 04:15:52;;;;;;;;;10.00;8.75;;;;;5.48;45.56;101956.94;146589;581;46016;-77
2022/02/09 04:19:02;;;;;;;;;11.25;7.75;;;;;5.42;46.64;101964.09;146593;582;46008;-75
2022/02/09 04:38:02;;;;;;;;;10.00;8.00;;;;;5.13;47.52;101967.47;146590;719;46020;-77
2022/02/09 04:44:43;;;;;;;;;10.25;8.25;;;;;5.06;48.27;101966.00;146591;599;46021;-76
2022/02/09 04:50:59;;;;;;;;;14.50;9.25;;;;;5.03;47.58;101977.69;146591;577;46021;-77
2022/02/09 04:57:11;;;;;;;;;8.75;8.75;;;;;4.91;47.69;101981.66;146591;569;46021;-73
2022/02/09 05:00:24;;;;;;;;;12.25;10.50;;;;;4.83;47.62;101984.44;146592;646;46016;-76
2022/02/09 05:22:57;;;;;;;;;13.75;12.25;;;;;4.47;48.50;101998.91;146587;670;46020;-76
2022/02/09 05:25:51;;;;;;;;;15.50;14.25;;;;;4.52;48.54;101998.59;146585;635;46016;-77
2022/02/09 05:28:43;;;;;;;;;15.75;15.50;;;;;4.56;49.49;102000.69;146587;604;46021;-72
2022/02/09 05:31:36;;;;;;;;;20.25;18.00;;;;;4.58;48.95;102011.12;146588;585;47010;-71
2022/02/09 05:34:28;;;;;;;;;14.50;13.00;;;;;4.57;48.59;102006.75;146587;564;46021;-77
2022/02/09 05:37:20;;;;;;;;;15.75;15.50;;;;;4.56;48.86;102013.53;146585;580;46012;-78
2022/02/09 05:40:13;;;;;;;;;19.25;17.50;;;;;4.56;48.45;102015.22;146588;629;46021;-78
2022/02/09 05:43:06;;;;;;;;;25.50;21.00;;;;;4.56;49.21;102025.50;146585;596;46016;-78
2022/02/09 05:56:09;;;;;;;;;18.25;17.25;;;;;4.70;48.70;102044.78;146595;629;47010;-72
2022/02/09 06:02:22;;;;;;;;;13.75;12.75;;;;;4.75;49.07;102046.13;146598;573;46029;-73
2022/02/09 06:05:18;;;;;;;;;14.75;14.25;;;;;4.91;48.53;102040.78;146595;677;45021;-71
2022/02/09 06:08:11;;;;;;;;;13.00;12.25;;;;;4.49;47.11;101825.34;146595;606;46016;-73
2022/02/09 06:11:12;;;;;;;;;13.25;11.25;;;;;6.61;45.75;102046.09;146597;651;47010;-72
2022/02/09 06:14:34;;;;;;;;;15.75;15.00;;;;;7.50;43.60;102041.75;146597;604;46016;-71
2022/02/09 06:20:35;;;;;;;;;15.00;11.50;;;;;9.12;40.50;102043.72;146597;606;46017;-84
2022/02/09 06:23:28;;;;;;;;;11.50;9.00;;;;;9.64;39.43;102034.81;146600;641;45020;-79
2022/02/09 06:26:20;;;;;;;;;11.25;10.50;;;;;9.89;37.83;102036.66;146603;581;47012;-78
2022/02/09 06:29:13;;;;;;;;;19.00;14.00;;;;;10.16;39.15;102055.94;146598;592;46913;-80
2022/02/09 06:32:08;;;;;;;;;28.50;27.50;;;;;10.48;39.80;102060.94;146590;576;47010;-74
2022/02/09 06:35:01;;;;;;;;;25.25;23.25;;;;;10.76;38.68;102068.13;146591;599;46021;-73
2022/02/09 06:37:54;;;;;;;;;19.25;16.75;;;;;10.92;36.47;102059.72;146593;631;46016;-74
2022/02/09 06:40:52;;;;;;;;;21.00;18.25;;;;;11.00;38.47;102059.50;146597;593;47008;-70
2022/02/09 06:43:44;;;;;;;;;17.50;16.50;;;;;11.18;37.83;102058.97;146599;588;47010;-68
2022/02/09 06:46:38;;;;;;;;;19.00;16.00;;;;;11.25;36.52;102064.72;146598;600;47008;-69
2022/02/09 06:49:32;;;;;;;;;17.00;16.00;;;;;11.20;37.45;102075.56;146592;597;46016;-69
2022/02/09 06:52:24;;;;;;;;;20.25;19.25;;;;;11.03;37.01;102070.09;146598;583;46020;-69
2022/02/09 06:55:20;;;;;;;;;18.75;16.75;;;;;10.63;37.94;102064.63;146595;566;46017;-71
2022/02/09 06:58:19;;;;;;;;;19.75;18.50;;;;;10.38;38.47;102067.13;146597;657;46010;-71
2022/02/09 07:01:12;;;;;;;;;21.25;19.75;;;;;10.44;38.65;102074.47;146598;566;47010;-83
2022/02/09 07:04:04;;;;;;;;;18.00;15.00;;;;;10.56;37.49;102079.62;146595;653;46010;-75
2022/02/09 07:06:57;;;;;;;;;19.50;17.50;;;;;10.54;37.45;102084.72;146591;695;46016;-73
2022/02/09 07:09:50;;;;;;;;;21.50;20.25;;;;;10.47;38.28;102079.88;146599;572;47008;-72
2022/02/09 07:12:42;;;;;;;;;11.00;10.00;;;;;10.49;37.11;102085.16;146593;642;46028;-72
2022/02/09 07:15:41;;;;;;;;;9.00;7.75;;;;;10.43;37.31;102088.22;146598;657;46020;-73
2022/02/09 07:18:33;;;;;;;;;13.00;12.25;;;;;10.43;38.03;102102.88;146597;588;46916;-74
2022/02/09 07:21:30;;;;;;;;;12.75;10.75;;;;;10.43;38.43;102088.22;146597;655;46020;-75
2022/02/09 07:24:22;;;;;;;;;7.75;7.75;;;;;10.43;37.24;102093.41;146600;603;47033;-73
2022/02/09 07:27:27;;;;;;;;;8.50;8.50;;;;;10.41;38.12;102092.41;146596;591;47008;-72
2022/02/09 07:30:22;;;;;;;;;9.25;7.50;;;;;10.45;37.96;102091.81;146599;623;46016;-73
2022/02/09 07:33:15;;;;;;;;;10.00;9.00;;;;;10.48;37.97;102085.97;146591;612;47010;-74
2022/02/09 07:36:08;;;;;;;;;8.50;8.00;;;;;10.55;38.02;102093.41;146598;588;46016;-74
2022/02/09 07:39:02;;;;;;;;;9.75;9.00;;;;;10.63;38.64;102098.34;146603;585;46008;-73
2022/02/09 07:41:56;;;;;;;;;9.00;8.00;;;;;10.78;38.41;102103.75;146601;599;46012;-73
2022/02/09 07:48:25;;;;;;;;;16.00;12.25;;;;;11.00;37.97;102101.03;146599;642;46012;-69
2022/02/09 07:54:32;;;;;;;;;12.50;11.25;;;;;11.26;36.95;102096.75;146588;734;47010;-74
2022/02/09 07:57:25;;;;;;;;;11.75;10.25;;;;;11.35;37.42;102099.09;146593;569;46020;-70
2022/02/09 08:00:18;;;;;;;;;8.25;8.25;;;;;11.40;36.26;102092.53;146587;582;46010;-70
2022/02/09 08:03:10;;;;;;;;;14.25;11.75;;;;;11.41;36.41;102104.72;146588;650;46021;-78
2022/02/09 08:06:03;;;;;;;;;10.25;9.25;;;;;11.50;39.15;102095.00;146587;569;46915;-74
2022/02/09 08:08:57;;;;;;;;;8.50;6.25;;;;;11.75;42.18;102093.28;146593;586;46020;-74
2022/02/09 08:28:33;;;;;;;;;8.00;7.00;;;;;12.61;36.82;102072.06;146592;618;46020;-73
2022/02/09 08:31:46;;;;;;;;;12.25;8.50;;;;;12.70;36.35;102063.16;146590;594;47010;-73
2022/02/09 08:34:38;;;;;;;;;7.00;6.75;;;;;12.80;36.66;102067.25;146585;565;46020;-73
2022/02/09 08:37:30;;;;;;;;;10.00;8.50;;;;;12.85;36.10;102070.16;146591;579;46016;-70
2022/02/09 08:40:23;;;;;;;;;11.00;8.50;;;;;12.94;36.69;102063.81;146590;581;46008;-72
2022/02/09 08:43:15;;;;;;;;;10.25;8.50;;;;;13.04;36.69;102064.41;146593;645;46008;-79
2022/02/09 08:46:08;;;;;;;;;6.75;6.75;;;;;13.11;35.90;102057.03;146590;571;46016;-77
2022/02/09 08:49:00;;;;;;;;;7.50;5.50;;;;;13.16;36.72;102055.62;146596;600;46915;-78
2022/02/09 08:51:52;;;;;;;;;10.75;9.00;;;;;13.30;36.33;102063.44;146601;636;46020;-79
2022/02/09 08:54:44;;;;;;;;;9.00;6.00;;;;;13.42;36.49;102061.56;146606;598;46010;-79
2022/02/09 08:57:36;;;;;;;;;8.75;8.25;;;;;13.50;35.09;102054.25;146602;602;45046;-78
2022/02/09 09:00:32;;;;;;;;;11.50;8.75;;;;;13.61;35.94;102045.34;146597;697;46016;-79
2022/02/09 09:03:29;;;;;;;;;9.75;8.75;;;;;13.70;34.89;102048.50;146591;594;47008;-79
2022/02/09 09:06:25;;;;;;;;;11.25;8.25;;;;;13.82;35.81;102050.94;146604;563;47010;-79
2022/02/09 09:16:57;;;;;;;;;10.75;10.50;;;;;14.30;35.34;102041.59;146599;656;46009;-78
2022/02/09 10:35:11;;;;;;;;;7.25;6.00;;;;;16.21;34.17;102016.91;146591;569;47008;-78
2022/02/09 10:38:26;;;;;;;;;9.00;6.00;;;;;16.28;35.22;102005.03;146590;676;46017;-78
2022/02/09 10:41:28;;;;;;;;;10.25;9.25;;;;;16.29;34.47;102002.50;146586;642;46020;-76
2022/02/09 10:44:24;;;;;;;;;5.00;5.00;;;;;16.37;33.38;102005.47;146587;664;47010;-77
2022/02/09 10:47:28;;;;;;;;;7.25;6.00;;;;;16.40;35.17;101992.53;146596;581;46008;-78
2022/02/09 10:50:37;;;;;;;;;12.00;9.00;;;;;16.40;35.68;102000.38;146597;591;46016;-77
2022/02/09 10:53:30;;;;;;;;;5.50;5.50;;;;;16.47;34.85;101996.31;146598;571;47008;-78
2022/02/09 10:56:22;;;;;;;;;6.75;6.75;;;;;16.55;34.14;101980.16;146601;598;47010;-77
2022/02/09 10:59:16;;;;;;;;;8.50;5.00;;;;;16.65;34.12;101983.22;146605;673;46008;-78
2022/02/09 11:02:12;;;;;;;;;10.00;8.75;;;;;16.62;33.44;101987.47;146601;564;47010;-77
2022/02/09 11:05:03;;;;;;;;;22.00;18.50;;;;;16.62;34.77;101978.72;146597;605;46020;-78
2022/02/09 11:07:57;;;;;;;;;9.00;7.75;;;;;16.74;34.43;101973.16;146600;590;47010;-78
2022/02/09 11:10:50;;;;;;;;;14.50;10.25;;;;;16.82;34.63;101985.81;146589;600;46020;-77
2022/02/09 11:13:44;;;;;;;;;7.75;6.00;;;;;16.87;34.44;101970.31;146597;597;46016;-77
2022/02/09 11:16:37;;;;;;;;;12.25;10.00;;;;;16.94;34.60;101972.34;146599;573;46008;-78
2022/02/09 11:19:39;;;;;;;;;8.00;6.75;;;;;17.04;34.94;101969.34;146592;607;47010;-77
2022/02/09 11:22:44;;;;;;;;;15.00;15.00;;;;;17.15;36.12;101968.91;146598;657;46021;-78
2022/02/09 11:25:43;;;;;;;;;9.00;9.00;;;;;17.27;34.03;101962.50;146599;666;45915;-79
2022/02/09 11:28:40;;;;;;;;;13.50;11.25;;;;;17.35;35.01;101967.16;146598;613;46020;-77
2022/02/09 11:31:35;;;;;;;;;10.75;10.00;;;;;17.35;34.28;101954.94;146601;589;45916;-77
2022/02/09 11:34:27;;;;;;;;;15.50;13.25;;;;;17.39;34.39;101962.13;146597;617;46009;-78
2022/02/09 11:37:28;;;;;;;;;9.50;9.50;;;;;17.43;35.11;101953.56;146600;598;46010;-78
2022/02/09 11:41:09;;;;;;;;;12.75;11.00;;;;;16.46;36.68;101762.44;146593;616;46020;-78
2022/02/09 11:44:08;;;;;;;;;14.50;12.00;;;;;17.47;33.87;101931.87;146597;591;46017;-78
2022/02/09 11:47:19;;;;;;;;;22.50;19.75;;;;;17.44;34.57;101936.97;146595;607;46027;-78
2022/02/09 11:57:25;;;;;;;;;14.25;12.50;;;;;17.11;34.06;101927.69;146593;566;46016;-77
2022/02/09 12:00:28;;;;;;;;;9.75;9.00;;;;;17.07;33.10;101913.53;146599;632;46021;-77
2022/02/09 12:08:51;;;;;;;;;15.25;13.50;;;;;16.96;32.67;101906.94;146600;606;46009;-77
2022/02/09 12:10:27;;;;;;;;;10.50;9.00;;;;;16.90;33.60;101910.19;146598;572;47010;-77
2022/02/09 12:14:01;;;;;;;;;17.00;14.00;;;;;16.98;35.86;101900.06;146593;592;46020;-77
2022/02/09 12:17:30;;;;;;;;;12.75;11.25;;;;;17.02;33.71;101905.47;146592;588;47010;-78
2022/02/09 12:20:34;;;;;;;;;12.50;12.50;;;;;16.96;32.87;101899.97;146597;568;46020;-77
2022/02/09 12:23:41;;;;;;;;;9.50;8.50;;;;;16.89;35.02;101897.91;146597;592;46017;-77
2022/02/09 12:26:32;;;;;;;;;5.50;5.50;;;;;16.97;34.78;101899.13;146603;618;46008;-78
2022/02/09 12:29:26;;;;;;;;;6.75;6.75;;;;;17.08;34.19;101895.28;146598;703;46029;-77
2022/02/09 12:32:36;;;;;;;;;10.00;10.00;;;;;17.13;36.22;101886.69;146605;666;46008;-76
2022/02/09 12:35:28;;;;;;;;;11.00;10.00;;;;;17.13;34.54;101887.59;146600;592;46016;-77
2022/02/09 12:38:31;;;;;;;;;29.00;25.00;;;;;17.06;36.18;101891.69;146600;627;46020;-77
2022/02/09 12:41:30;;;;;;;;;10.75;9.25;;;;;17.06;35.02;101886.44;146599;613;46012;-77
2022/02/09 12:44:25;;;;;;;;;7.75;7.00;;;;;17.07;35.94;101889.94;146597;612;46021;-78
2022/02/09 12:47:17;;;;;;;;;9.75;9.00;;;;;17.13;34.78;101882.34;146597;599;46016;-76
2022/02/09 12:50:13;;;;;;;;;7.50;7.50;;;;;17.22;34.75;101884.47;146607;619;46008;-78
2022/02/09 12:53:08;;;;;;;;;7.00;7.00;;;;;17.19;34.43;101879.09;146600;578;46016;-76
2022/02/09 12:56:00;;;;;;;;;7.50;7.50;;;;;17.09;34.62;101875.19;146604;577;46020;-77
2022/02/09 12:59:19;;;;;;;;;8.00;8.00;;;;;16.04;35.68;101702.13;146601;628;47010;-76
2022/02/09 13:02:11;;;;;;;;;8.25;7.75;;;;;17.04;34.75;101880.25;146603;565;46912;-76
2022/02/09 13:05:06;;;;;;;;;6.25;6.25;;;;;17.07;34.96;101880.38;146598;631;46017;-76
2022/02/09 13:08:03;;;;;;;;;8.50;7.50;;;;;17.04;34.84;101879.34;146604;565;46020;-76
2022/02/09 13:11:19;;;;;;;;;8.75;8.00;;;;;17.04;35.21;101874.09;146598;583;46016;-76
2022/02/09 13:14:16;;;;;;;;;10.75;9.75;;;;;17.13;35.55;101874.50;146594;692;46021;-76
2022/02/09 13:17:24;;;;;;;;;8.00;7.75;;;;;17.37;34.88;101876.38;146600;605;46916;-76
2022/02/09 13:20:45;;;;;;;;;7.00;7.00;;;;;17.55;35.86;101872.78;146603;580;46021;-76
2022/02/09 14:10:40;;;;;;;;;25.00;19.00;;;;;18.55;35.81;101884.59;146602;702;46914;-77
2022/02/09 14:17:01;;;;;;;;;36.00;32.00;;;;;18.52;36.50;101891.47;146595;626;46016;-77
2022/02/09 14:59:03;;;;;;;;;21.50;20.75;;;;;15.75;41.75;101909.13;146601;604;46020;-78
2022/02/09 15:01:59;;;;;;;;;22.75;22.75;;;;;15.59;42.71;101915.28;146596;614;47010;-78
2022/02/09 15:11:34;;;;;;;;;25.75;22.00;;;;;14.96;43.05;101927.75;146599;610;46021;-77
2022/02/09 15:14:37;;;;;;;;;22.50;19.50;;;;;14.76;43.95;101926.69;146596;569;46016;-78
2022/02/09 15:17:46;;;;;;;;;25.25;22.75;;;;;14.65;44.21;101933.94;146601;610;46020;-77
2022/02/09 15:21:00;;;;;;;;;19.75;18.75;;;;;14.49;44.94;101929.59;146594;635;47010;-77
2022/02/09 15:23:53;;;;;;;;;23.75;21.25;;;;;14.33;45.28;101930.47;146593;570;47008;-72
2022/02/09 15:26:48;;;;;;;;;22.50;22.00;;;;;14.21;45.62;101932.38;146597;619;46016;-75
2022/02/09 15:29:40;;;;;;;;;27.25;25.50;;;;;14.12;45.44;101931.87;146602;571;47012;-75
2022/02/09 15:32:40;;;;;;;;;26.00;23.75;;;;;13.99;45.21;101935.50;146601;590;47011;-75
2022/02/09 15:35:37;;;;;;;;;26.00;21.00;;;;;13.93;45.96;101939.47;146602;659;47008;-74
2022/02/09 15:38:39;;;;;;;;;20.50;19.75;;;;;13.84;45.64;101935.50;146598;623;46016;-75
2022/02/09 15:41:42;;;;;;;;;29.50;25.75;;;;;13.79;45.88;101934.34;146600;575;46021;-75
2022/02/09 15:57:50;;;;;;;;;37.75;33.00;;;;;13.31;46.71;101942.81;146583;760;46016;-76
2022/02/09 16:23:04;;;;;;;;;48.50;38.25;;;;;12.79;47.02;101983.88;146583;620;46025;-76
2022/02/09 16:26:13;;;;;;;;;41.75;34.75;;;;;12.76;46.68;101984.56;146588;572;46020;-76
2022/02/09 16:39:02;;;;;;;;;35.25;31.00;;;;;12.56;48.23;101991.12;146589;765;46020;-74
2022/02/09 16:45:04;;;;;;;;;50.00;40.50;;;;;12.55;46.78;101998.84;146586;609;47025;-79
2022/02/09 16:48:02;;;;;;;;;55.75;45.25;;;;;12.56;48.02;102005.84;146588;584;46016;-79
2022/02/09 16:50:55;;;;;;;;;42.00;33.25;;;;;12.53;48.06;102008.25;146589;563;47008;-78
2022/02/09 16:54:21;;;;;;;;;39.25;33.25;;;;;12.49;47.56;102014.94;146589;575;46010;-79
2022/02/09 17:19:32;;;;;;;;;70.75;56.50;;;;;12.34;48.87;102032.19;146589;647;47010;-78
2022/02/09 17:22:24;;;;;;;;;62.00;49.50;;;;;12.32;48.66;102033.78;146590;593;46008;-79
2022/02/09 17:25:17;;;;;;;;;41.75;34.25;;;;;12.23;48.49;102042.78;146586;586;47010;-79
2022/02/09 17:28:11;;;;;;;;;63.00;50.25;;;;;12.22;48.38;102040.97;146585;730;47911;-78
2022/02/09 17:31:23;;;;;;;;;54.25;43.50;;;;;12.24;49.27;102051.47;146586;632;46914;-79
2022/02/09 17:34:43;;;;;;;;;45.00;37.25;;;;;12.23;50.22;102047.09;146589;597;46020;-81
2022/02/09 17:37:53;;;;;;;;;25.50;23.00;;;;;12.21;49.29;102056.47;146590;615;47010;-79
2022/02/09 17:53:30;;;;;;;;;32.25;26.00;;;;;12.31;49.31;102073.59;146602;572;46020;-79
2022/02/09 17:56:25;;;;;;;;;20.50;20.50;;;;;12.29;49.36;102057.88;146601;575;47010;-79
2022/02/09 17:59:23;;;;;;;;;16.25;13.00;;;;;12.27;49.15;102064.69;146591;632;47008;-80
2022/02/09 18:02:15;;;;;;;;;30.50;25.75;;;;;12.28;48.20;102057.81;146599;618;46012;-79
2022/02/09 18:05:16;;;;;;;;;29.25;25.50;;;;;12.29;49.12;102080.41;146601;631;46020;-81
2022/02/09 18:08:19;;;;;;;;;15.75;13.75;;;;;12.28;48.14;102060.41;146601;616;47010;-79
2022/02/09 18:11:31;;;;;;;;;15.25;13.75;;;;;12.27;48.68;102055.97;146600;581;46021;-79
2022/02/09 18:30:41;;;;;;;;;14.75;14.25;;;;;12.23;47.77;102078.28;146592;721;46020;-80
2022/02/09 18:43:21;;;;;;;;;19.50;16.00;;;;;12.09;48.76;102063.50;146600;565;47008;-79
2022/02/09 18:46:26;;;;;;;;;14.75;12.50;;;;;12.07;48.88;102083.28;146601;603;46017;-79
2022/02/09 19:05:28;;;;;;;;;21.25;17.25;;;;;11.95;49.51;102057.34;146599;666;46016;-79
2022/02/09 19:31:16;;;;;;;;;14.00;10.75;;;;;11.97;48.33;102073.97;146594;592;47012;-80
2022/02/09 19:40:41;;;;;;;;;7.00;6.25;;;;;11.97;46.92;102073.97;146605;580;46020;-79
2022/02/09 19:53:39;;;;;;;;;12.50;12.00;;;;;12.13;47.66;102092.38;146599;564;47008;-80
2022/02/09 19:56:34;;;;;;;;;14.00;13.00;;;;;12.13;47.27;102086.28;146600;699;46016;-80
2022/02/09 19:59:26;;;;;;;;;15.75;15.75;;;;;12.11;47.50;102083.56;146594;621;47008;-80
2022/02/09 20:02:19;;;;;;;;;19.75;19.00;;;;;12.10;48.06;102079.19;146601;615;46016;-80
2022/02/09 20:05:11;;;;;;;;;22.75;19.75;;;;;12.06;48.11;102078.88;146590;611;46020;-79
2022/02/09 20:08:05;;;;;;;;;29.25;28.50;;;;;11.98;48.19;102066.25;146601;646;46016;-80
2022/02/09 20:10:57;;;;;;;;;16.00;14.25;;;;;11.94;47.64;102082.44;146595;617;46020;-80
2022/02/09 20:13:52;;;;;;;;;17.50;16.25;;;;;11.89;47.30;102086.44;146595;582;47010;-80
2022/02/09 20:16:44;;;;;;;;;14.75;13.00;;;;;11.82;48.17;102091.09;146602;590;46021;-79
2022/02/09 20:19:38;;;;;;;;;20.50;18.25;;;;;11.78;49.15;102098.69;146598;584;47010;-80
2022/02/09 20:22:30;;;;;;;;;18.25;16.25;;;;;11.71;48.82;102104.25;146598;571;47009;-79
2022/02/09 20:25:24;;;;;;;;;12.50;10.50;;;;;11.72;48.04;102112.94;146602;586;46016;-79
2022/02/09 20:28:17;;;;;;;;;19.50;17.50;;;;;11.69;49.02;102117.94;146602;604;46012;-78
2022/02/09 20:31:14;;;;;;;;;23.50;20.00;;;;;11.59;51.61;102106.00;146600;597;46012;-81
2022/02/09 20:34:16;;;;;;;;;16.00;15.00;;;;;11.56;50.92;102127.47;146592;602;46008;-80
2022/02/09 20:37:10;;;;;;;;;22.00;20.00;;;;;11.50;51.68;102134.84;146597;565;46016;-79
2022/02/09 20:43:07;;;;;;;;;19.50;15.00;;;;;11.39;51.90;102138.37;146601;581;47010;-81
2022/02/09 20:46:04;;;;;;;;;31.75;29.25;;;;;11.36;52.08;102139.84;146601;571;45914;-80
2022/02/09 20:48:56;;;;;;;;;27.75;26.00;;;;;10.80;52.50;102055.47;146599;607;46010;-79
2022/02/09 20:51:49;;;;;;;;;38.00;31.75;;;;;10.80;51.64;102055.47;146600;586;46020;-80
2022/02/09 20:54:41;;;;;;;;;26.00;25.25;;;;;11.27;51.75;102140.09;146604;749;46010;-79
2022/02/09 20:57:33;;;;;;;;;26.50;21.50;;;;;11.26;51.97;102140.91;146599;563;46020;-80
2022/02/09 21:03:51;;;;;;;;;31.75;27.25;;;;;11.29;51.36;102146.31;146594;572;45911;-80
2022/02/09 21:07:07;;;;;;;;;29.25;29.00;;;;;11.31;50.79;102144.75;146598;608;46916;-80
2022/02/09 21:10:13;;;;;;;;;17.50;16.50;;;;;11.31;51.66;102144.75;146600;569;46008;-80
2022/02/09 21:13:14;;;;;;;;;11.50;9.75;;;;;11.21;50.93;102118.91;146602;560;46016;-81
2022/02/09 21:19:52;;;;;;;;;26.50;24.25;;;;;11.28;50.74;102140.22;146597;744;46012;-80
2022/02/09 21:54:58;;;;;;;;;56.00;44.00;;;;;10.99;51.73;102164.06;146601;627;46020;-80
2022/02/09 21:58:06;;;;;;;;;11.25;11.25;;;;;10.97;51.09;102170.88;146592;586;46016;-81
2022/02/09 22:16:17;;;;;;;;;21.50;20.00;;;;;10.87;50.70;102165.78;146593;634;46008;-81
2022/02/09 22:20:23;;;;;;;;;20.00;18.75;;;;;10.54;51.69;102162.53;146601;627;46008;-82
2022/02/09 22:24:01;;;;;;;;;16.00;13.50;;;;;10.29;51.79;102171.88;146601;639;46010;-81
2022/02/09 22:27:00;;;;;;;;;17.00;16.25;;;;;10.09;52.01;102175.47;146600;577;46020;-81
2022/02/09 22:49:50;;;;;;;;;26.50;22.75;;;;;9.53;53.21;102183.25;146593;616;46016;-88
2022/02/09 22:55:46;;;;;;;;;30.25;28.00;;;;;9.39;54.23;102191.62;146597;578;47012;-78
2022/02/09 22:58:38;;;;;;;;;38.00;33.00;;;;;9.36;54.02;102188.81;146601;571;46021;-80
2022/02/09 23:01:39;;;;;;;;;42.00;32.75;;;;;9.35;54.09;102187.91;146593;565;47010;-83
2022/02/09 23:04:40;;;;;;;;;57.75;45.50;;;;;9.31;54.56;102184.94;146602;670;46020;-81
2022/02/09 23:07:51;;;;;;;;;17.25;17.25;;;;;9.23;54.16;102192.09;146600;602;45942;-84
2022/02/09 23:11:13;;;;;;;;;20.00;17.25;;;;;9.18;54.62;102189.13;146593;563;46008;-83
